createdAt,value
2022-08-23T00:01:39.351Z,70.20
2022-08-23T00:04:11.547Z,70.10
2022-08-23T00:06:39.458Z,69.80
2022-08-23T00:09:06.574Z,69.80
2022-08-23T00:11:45.115Z,69.30
2022-08-23T00:14:18.163Z,69.50
2022-08-23T00:16:45.720Z,69.80
2022-08-23T00:19:16.666Z,69.80
2022-08-23T00:21:44.751Z,70.00
2022-08-23T00:24:12.777Z,70.20
2022-08-23T00:27:02.722Z,70.20
2022-08-23T00:29:33.189Z,70.30
2022-08-23T00:32:00.572Z,70.30
2022-08-23T00:34:28.323Z,70.30
2022-08-23T00:36:56.622Z,71.40
2022-08-23T00:39:23.906Z,70.80
2022-08-23T00:41:52.005Z,70.90
2022-08-23T00:44:40.377Z,70.80
2022-08-23T00:47:27.996Z,70.80
2022-08-23T00:50:23.417Z,70.90
2022-08-23T00:53:15.422Z,71.10
2022-08-23T00:55:45.472Z,71.50
2022-08-23T00:58:15.419Z,71.50
2022-08-23T01:00:42.469Z,72.00
2022-08-23T01:03:11.481Z,71.30
2022-08-23T01:05:57.195Z,71.30
2022-08-23T01:08:27.244Z,71.30
2022-08-23T01:11:00.572Z,71.20
2022-08-23T01:13:48.838Z,71.30
2022-08-23T01:16:28.051Z,71.30
2022-08-23T01:18:55.999Z,71.10
2022-08-23T01:21:38.474Z,71.40
2022-08-23T01:24:10.598Z,71.30
2022-08-23T01:26:48.031Z,71.50
2022-08-23T01:29:16.922Z,71.80
2022-08-23T01:31:44.534Z,71.90
2022-08-23T01:34:13.964Z,72.10
2022-08-23T01:36:43.449Z,72.00
2022-08-23T01:39:11.133Z,71.60
2022-08-23T01:41:38.833Z,72.20
2022-08-23T01:44:07.411Z,71.60
2022-08-23T01:46:34.718Z,71.50
2022-08-23T01:49:08.037Z,71.30
2022-08-23T01:51:35.351Z,71.10
2022-08-23T01:54:02.284Z,71.10
2022-08-23T01:56:38.681Z,70.90
2022-08-23T01:59:08.814Z,71.00
2022-08-23T02:01:36.569Z,70.80
2022-08-23T02:04:05.226Z,71.50
2022-08-23T02:06:33.035Z,70.70
2022-08-23T02:09:03.588Z,71.30
2022-08-23T02:11:37.210Z,70.70
2022-08-23T02:14:11.314Z,70.80
2022-08-23T02:16:53.728Z,70.80
2022-08-23T02:19:33.233Z,70.80
2022-08-23T02:22:00.451Z,70.90
2022-08-23T02:24:27.484Z,71.50
2022-08-23T02:26:57.250Z,71.10
2022-08-23T02:29:25.530Z,71.30
2022-08-23T02:31:53.152Z,71.20
2022-08-23T02:34:20.955Z,71.10
2022-08-23T02:36:48.536Z,71.20
2022-08-23T02:39:17.368Z,70.60
2022-08-23T02:41:45.220Z,71.20
2022-08-23T02:44:13.418Z,71.20
2022-08-23T02:46:41.977Z,71.90
2022-08-23T02:49:09.690Z,71.10
2022-08-23T02:51:37.169Z,71.10
2022-08-23T02:54:04.596Z,71.50
2022-08-23T02:56:31.959Z,71.30
2022-08-23T02:58:58.884Z,71.30
2022-08-23T03:01:34.417Z,71.60
2022-08-23T03:04:02.823Z,71.70
2022-08-23T03:06:29.792Z,71.30
2022-08-23T03:08:56.895Z,71.20
2022-08-23T03:11:25.249Z,71.90
2022-08-23T03:13:53.035Z,72.00
2022-08-23T03:16:20.857Z,71.50
2022-08-23T03:18:48.785Z,71.80
2022-08-23T03:21:16.582Z,71.20
2022-08-23T03:23:43.559Z,71.10
2022-08-23T03:26:13.584Z,71.30
2022-08-23T03:28:42.173Z,71.70
2022-08-23T03:31:09.783Z,71.40
2022-08-23T03:33:37.287Z,71.30
2022-08-23T03:36:07.448Z,72.20
2022-08-23T03:38:34.771Z,71.60
2022-08-23T03:41:02.002Z,71.50
2022-08-23T03:43:29.486Z,71.70
2022-08-23T03:45:56.664Z,71.30
2022-08-23T03:48:24.869Z,71.40
2022-08-23T03:50:54.675Z,71.60
2022-08-23T03:53:23.720Z,71.40
2022-08-23T03:55:52.390Z,71.20
2022-08-23T03:58:20.610Z,71.40
2022-08-23T04:00:47.478Z,71.50
2022-08-23T04:03:17.247Z,71.60
2022-08-23T04:05:44.228Z,71.40
2022-08-23T04:08:11.800Z,71.50
2022-08-23T04:10:39.318Z,71.30
2022-08-23T04:13:08.514Z,71.30
2022-08-23T04:15:36.207Z,71.50
2022-08-23T04:18:04.325Z,71.70
2022-08-23T04:20:31.648Z,71.70
2022-08-23T04:22:59.038Z,72.50
2022-08-23T04:25:33.313Z,73.00
2022-08-23T04:28:01.887Z,73.20
2022-08-23T04:30:29.293Z,73.40
2022-08-23T04:32:58.584Z,73.50
2022-08-23T04:35:26.142Z,73.60
2022-08-23T04:37:53.867Z,74.10
2022-08-23T04:40:39.393Z,73.30
2022-08-23T04:43:08.656Z,73.20
2022-08-23T04:45:39.348Z,73.10
2022-08-23T04:48:10.444Z,73.10
2022-08-23T04:50:39.399Z,72.90
2022-08-23T04:53:06.420Z,72.70
2022-08-23T04:55:36.294Z,72.50
2022-08-23T04:58:04.831Z,73.10
2022-08-23T05:00:31.924Z,72.30
2022-08-23T05:02:58.790Z,72.50
2022-08-23T05:05:27.643Z,72.70
2022-08-23T05:07:55.276Z,72.80
2022-08-23T05:10:24.394Z,72.40
2022-08-23T05:12:51.379Z,72.20
2022-08-23T05:15:18.310Z,72.60
2022-08-23T05:17:45.092Z,72.50
2022-08-23T05:20:12.361Z,73.00
2022-08-23T05:22:41.394Z,73.00
2022-08-23T05:25:09.068Z,73.00
2022-08-23T05:27:36.462Z,73.10
2022-08-23T05:30:04.679Z,73.70
2022-08-23T05:32:33.692Z,73.60
2022-08-23T05:35:00.866Z,73.50
2022-08-23T05:37:27.888Z,73.40
2022-08-23T05:39:54.911Z,73.30
2022-08-23T05:42:21.786Z,73.60
2022-08-23T05:44:48.576Z,74.10
2022-08-23T05:47:16.492Z,74.30
2022-08-23T05:49:44.368Z,74.30
2022-08-23T05:52:13.651Z,74.10
2022-08-23T05:54:41.128Z,74.20
2022-08-23T05:57:08.306Z,74.40
2022-08-23T05:59:35.555Z,74.60
2022-08-23T06:02:02.979Z,74.30
2022-08-23T06:04:29.865Z,75.00
2022-08-23T06:06:59.012Z,74.20
2022-08-23T06:09:26.429Z,73.90
2022-08-23T06:11:54.073Z,74.00
2022-08-23T06:14:21.265Z,74.20
2022-08-23T06:16:53.672Z,74.00
2022-08-23T06:19:22.933Z,73.60
2022-08-23T06:21:51.130Z,74.30
2022-08-23T06:24:18.062Z,75.00
2022-08-23T06:26:45.732Z,74.80
2022-08-23T06:29:17.464Z,74.70
2022-08-23T06:31:48.026Z,75.30
2022-08-23T06:34:33.491Z,74.40
2022-08-23T06:37:04.750Z,74.90
2022-08-23T06:39:36.893Z,74.40
2022-08-23T06:42:36.523Z,73.60
2022-08-23T06:44:57.777Z,73.90
2022-08-23T06:47:25.248Z,73.90
2022-08-23T06:49:57.645Z,73.00
2022-08-23T06:52:27.330Z,72.60
2022-08-23T06:54:57.731Z,70.30
2022-08-23T06:57:24.801Z,72.00
2022-08-23T06:59:51.625Z,70.10
2022-08-23T07:02:18.966Z,68.20
2022-08-23T07:04:46.371Z,67.90
2022-08-23T07:07:13.701Z,69.80
2022-08-23T07:09:41.597Z,70.90
2022-08-23T07:12:09.488Z,68.20
2022-08-23T07:14:37.643Z,67.60
2022-08-23T07:17:05.576Z,68.10
2022-08-23T07:19:34.792Z,67.50
2022-08-23T07:22:03.429Z,67.10
2022-08-23T07:24:33.570Z,67.10
2022-08-23T07:27:06.386Z,66.90
2022-08-23T07:29:35.387Z,67.00
2022-08-23T07:32:02.996Z,66.60
2022-08-23T07:34:30.617Z,66.70
2022-08-23T07:36:57.971Z,66.60
2022-08-23T07:39:26.572Z,66.50
2022-08-23T07:41:54.066Z,66.60
2022-08-23T07:44:24.464Z,66.30
2022-08-23T07:46:55.140Z,66.90
2022-08-23T07:49:23.015Z,67.40
2022-08-23T07:51:58.754Z,66.60
2022-08-23T07:54:25.818Z,66.40
2022-08-23T07:56:53.157Z,66.50
2022-08-23T07:59:20.515Z,66.40
2022-08-23T08:01:47.324Z,66.20
2022-08-23T08:04:14.768Z,66.30
2022-08-23T08:07:04.935Z,66.10
2022-08-23T08:09:35.554Z,66.40
2022-08-23T08:12:02.466Z,66.90
2022-08-23T08:14:31.612Z,66.40
2022-08-23T08:17:00.913Z,66.40
2022-08-23T08:19:28.670Z,66.20
2022-08-23T08:21:55.948Z,66.80
2022-08-23T08:24:23.356Z,66.80
2022-08-23T08:26:50.422Z,66.60
2022-08-23T08:29:18.033Z,66.50
2022-08-23T08:31:51.327Z,66.20
2022-08-23T08:34:20.497Z,66.30
2022-08-23T08:36:56.236Z,66.50
2022-08-23T08:39:30.445Z,66.80
2022-08-23T08:42:27.931Z,66.60
2022-08-23T08:44:55.128Z,66.60
2022-08-23T08:47:35.976Z,66.50
2022-08-23T08:50:07.581Z,66.80
2022-08-23T08:52:43.712Z,67.10
2022-08-23T08:55:18.374Z,67.00
2022-08-23T08:57:48.200Z,66.90
2022-08-23T09:00:25.592Z,66.80
2022-08-23T09:02:53.290Z,67.10
2022-08-23T09:05:31.773Z,67.00
2022-08-23T09:08:29.329Z,67.10
2022-08-23T09:11:14.774Z,67.90
2022-08-23T09:14:01.232Z,67.60
2022-08-23T09:16:50.624Z,67.50
2022-08-23T09:19:19.137Z,67.50
2022-08-23T09:21:59.403Z,67.40
2022-08-23T09:24:28.088Z,67.50
2022-08-23T09:26:56.177Z,67.20
2022-08-23T09:29:29.446Z,67.40
2022-08-23T09:32:04.638Z,67.50
2022-08-23T09:34:37.758Z,67.40
2022-08-23T09:37:13.814Z,67.10
2022-08-23T09:39:47.411Z,67.40
2022-08-23T09:42:37.499Z,67.30
2022-08-23T09:45:33.108Z,67.00
2022-08-23T09:48:02.712Z,67.70
2022-08-23T09:50:36.085Z,67.30
2022-08-23T09:53:09.290Z,67.20
2022-08-23T09:55:42.018Z,67.60
2022-08-23T09:58:26.442Z,67.50
2022-08-23T10:01:18.278Z,67.50
2022-08-23T10:03:46.340Z,67.80
2022-08-23T10:06:31.050Z,67.30
2022-08-23T10:09:04.445Z,67.30
2022-08-23T10:11:47.615Z,67.20
2022-08-23T10:14:17.740Z,66.90
2022-08-23T10:17:07.802Z,66.80
2022-08-23T10:19:44.310Z,66.70
2022-08-23T10:22:23.532Z,66.90
2022-08-23T10:25:33.231Z,67.30
2022-08-23T10:28:49.767Z,67.00
2022-08-23T10:31:23.085Z,67.20
2022-08-23T10:34:27.274Z,67.20
2022-08-23T10:37:18.407Z,67.50
2022-08-23T10:40:17.553Z,67.10
2022-08-23T10:43:27.281Z,66.70
2022-08-23T10:46:00.758Z,67.10
2022-08-23T10:48:32.078Z,66.80
2022-08-23T10:51:04.675Z,66.90
2022-08-23T10:53:46.755Z,66.80
2022-08-23T10:56:21.233Z,66.90
2022-08-23T10:59:09.244Z,66.90
2022-08-23T11:02:16.776Z,66.70
2022-08-23T11:05:02.703Z,66.90
2022-08-23T11:07:41.387Z,67.00
2022-08-23T11:10:25.057Z,67.30
2022-08-23T11:13:06.133Z,67.10
2022-08-23T11:15:44.579Z,67.00
2022-08-23T11:18:36.776Z,67.00
2022-08-23T11:21:06.898Z,67.00
2022-08-23T11:24:15.016Z,66.90
2022-08-23T11:26:44.917Z,66.70
2022-08-23T11:29:21.109Z,66.70
2022-08-23T11:32:00.594Z,66.80
2022-08-23T11:35:09.326Z,66.40
2022-08-23T11:37:57.265Z,66.40
2022-08-23T11:41:11.255Z,66.30
2022-08-23T11:43:40.304Z,66.20
2022-08-23T11:46:28.791Z,65.90
2022-08-23T11:49:13.613Z,66.40
2022-08-23T11:52:02.044Z,66.10
2022-08-23T11:55:14.043Z,66.10
2022-08-23T11:58:12.300Z,65.80
2022-08-23T12:01:03.051Z,65.70
2022-08-23T12:03:36.112Z,66.10
2022-08-23T12:06:03.476Z,65.90
2022-08-23T12:08:45.539Z,65.60
2022-08-23T12:11:12.680Z,65.60
2022-08-23T12:14:17.792Z,65.40
2022-08-23T12:16:49.965Z,65.20
2022-08-23T12:19:35.787Z,65.20
2022-08-23T12:22:12.809Z,65.10
2022-08-23T12:24:52.351Z,65.10
2022-08-23T12:27:38.721Z,65.20
2022-08-23T12:30:42.442Z,65.30
2022-08-23T12:33:43.952Z,65.10
2022-08-23T12:36:25.958Z,64.90
2022-08-23T12:38:58.547Z,65.10
2022-08-23T12:41:28.414Z,64.20
2022-08-23T12:44:08.031Z,64.20
2022-08-23T12:46:43.675Z,64.00
2022-08-23T12:49:28.292Z,64.10
2022-08-23T12:52:00.606Z,64.20
2022-08-23T12:54:36.437Z,64.60
2022-08-23T12:57:10.439Z,64.00
2022-08-23T13:00:16.393Z,64.10
2022-08-23T13:03:03.361Z,64.30
2022-08-23T13:05:52.233Z,63.00
2022-08-23T13:08:41.058Z,63.00
2022-08-23T13:11:10.632Z,62.80
2022-08-23T13:13:40.670Z,62.60
2022-08-23T13:16:33.588Z,62.50
2022-08-23T13:19:13.732Z,62.70
2022-08-23T13:21:40.638Z,62.50
2022-08-23T13:24:30.030Z,62.70
2022-08-23T13:27:49.965Z,62.70
2022-08-23T13:30:18.025Z,62.50
2022-08-23T13:32:48.127Z,62.00
2022-08-23T13:35:30.303Z,62.10
2022-08-23T13:38:21.860Z,62.00
2022-08-23T13:41:02.865Z,62.10
2022-08-23T13:43:39.011Z,61.90
2022-08-23T13:46:15.045Z,61.70
2022-08-23T13:49:06.270Z,61.90
2022-08-23T13:51:38.853Z,61.90
2022-08-23T13:54:14.096Z,61.90
2022-08-23T13:56:44.804Z,61.70
2022-08-23T13:59:31.955Z,61.70
2022-08-23T14:02:06.767Z,61.50
2022-08-23T14:04:34.479Z,61.50
2022-08-23T14:07:01.155Z,61.40
2022-08-23T14:09:28.392Z,61.90
2022-08-23T14:11:59.149Z,62.00
2022-08-23T14:14:30.218Z,62.00
2022-08-23T14:17:02.072Z,61.70
2022-08-23T14:22:19.236Z,61.70
2022-08-23T14:24:46.022Z,62.00
2022-08-23T14:27:13.002Z,62.00
2022-08-23T14:29:42.458Z,61.80
2022-08-23T14:32:09.330Z,61.70
2022-08-23T14:34:36.568Z,61.70
2022-08-23T14:39:51.023Z,61.70
2022-08-23T14:42:21.215Z,61.60
2022-08-23T14:44:48.207Z,59.70
2022-08-23T14:47:15.067Z,61.20
2022-08-23T14:49:41.981Z,61.20
2022-08-23T14:52:09.588Z,60.90
2022-08-23T14:54:36.951Z,61.10
2022-08-23T14:57:04.102Z,61.30
2022-08-23T14:59:30.928Z,61.20
2022-08-23T15:01:58.522Z,61.40
2022-08-23T15:04:25.937Z,61.40
2022-08-23T15:07:19.275Z,60.90
2022-08-23T15:09:52.616Z,60.90
2022-08-23T15:15:12.693Z,60.80
2022-08-23T15:17:56.581Z,60.50
2022-08-23T15:20:33.599Z,60.30
2022-08-23T15:23:00.902Z,60.00
2022-08-23T15:25:34.132Z,60.90
2022-08-23T15:28:03.972Z,60.20
2022-08-23T15:30:33.311Z,59.90
2022-08-23T15:33:01.026Z,59.80
2022-08-23T15:35:29.694Z,59.40
2022-08-23T15:37:57.440Z,57.20
2022-08-23T15:40:25.650Z,58.80
2022-08-23T15:42:53.199Z,58.60
2022-08-23T15:45:20.723Z,58.60
2022-08-23T15:47:54.858Z,58.60
2022-08-23T15:50:25.881Z,58.10
2022-08-23T15:52:53.038Z,58.70
2022-08-23T15:55:21.051Z,58.70
2022-08-23T15:57:53.537Z,58.80
2022-08-23T16:00:23.099Z,59.00
2022-08-23T16:03:18.286Z,59.10
2022-08-23T16:05:39.575Z,59.10
2022-08-23T16:08:08.086Z,58.40
2022-08-23T16:10:35.161Z,59.10
2022-08-23T16:13:03.496Z,59.00
2022-08-23T16:15:31.026Z,58.90
2022-08-23T16:17:57.937Z,59.00
2022-08-23T16:20:25.559Z,59.40
2022-08-23T16:22:52.559Z,59.10
2022-08-23T16:25:19.508Z,59.30
2022-08-23T16:27:46.685Z,59.30
2022-08-23T16:30:14.897Z,58.80
2022-08-23T16:32:42.148Z,58.50
2022-08-23T16:35:10.169Z,59.50
2022-08-23T16:37:37.591Z,59.60
2022-08-23T16:40:08.354Z,59.50
2022-08-23T16:42:35.266Z,59.50
2022-08-23T16:45:02.289Z,59.60
2022-08-23T16:47:32.296Z,59.90
2022-08-23T16:49:59.618Z,59.70
2022-08-23T16:52:28.758Z,60.00
2022-08-23T16:55:04.596Z,59.90
2022-08-23T16:57:31.455Z,60.50
2022-08-23T16:59:58.316Z,59.30
2022-08-23T17:02:34.721Z,59.90
2022-08-23T17:05:02.402Z,59.80
2022-08-23T17:07:29.664Z,60.10
2022-08-23T17:09:56.822Z,61.00
2022-08-23T17:12:23.582Z,60.10
2022-08-23T17:14:51.571Z,60.60
2022-08-23T17:17:18.955Z,61.40
2022-08-23T17:19:45.902Z,61.40
2022-08-23T17:22:13.521Z,60.60
2022-08-23T17:24:40.779Z,61.30
2022-08-23T17:27:08.195Z,62.00
2022-08-23T17:29:37.460Z,62.60
2022-08-23T17:32:05.377Z,62.70
2022-08-23T17:34:32.119Z,62.10
2022-08-23T17:36:59.716Z,61.20
2022-08-23T17:39:29.194Z,62.30
2022-08-23T17:41:57.880Z,62.30
2022-08-23T17:44:24.868Z,62.40
2022-08-23T17:46:52.102Z,62.40
2022-08-23T17:49:19.728Z,62.00
2022-08-23T17:51:47.268Z,62.90
2022-08-23T17:54:16.373Z,62.70
2022-08-23T17:56:50.478Z,62.60
2022-08-23T17:59:19.513Z,62.70
2022-08-23T18:01:46.563Z,63.00
2022-08-23T18:04:13.521Z,63.10
2022-08-23T18:06:40.638Z,62.20
2022-08-23T18:09:07.896Z,63.00
2022-08-23T18:11:36.065Z,63.70
2022-08-23T18:14:03.545Z,63.30
2022-08-23T18:16:35.263Z,63.90
2022-08-23T18:19:04.854Z,63.70
2022-08-23T18:21:31.742Z,63.70
2022-08-23T18:23:59.393Z,63.60
2022-08-23T18:26:46.279Z,63.80
2022-08-23T18:29:14.654Z,64.10
2022-08-23T18:31:43.836Z,64.30
2022-08-23T18:34:12.646Z,64.60
2022-08-23T18:36:39.674Z,64.50
2022-08-23T18:39:08.623Z,64.40
2022-08-23T18:41:35.920Z,64.40
2022-08-23T18:44:05.475Z,64.60
2022-08-23T18:46:33.925Z,64.70
2022-08-23T18:49:01.299Z,64.90
2022-08-23T18:51:28.438Z,65.00
2022-08-23T18:53:55.690Z,64.80
2022-08-23T18:56:22.848Z,65.10
2022-08-23T18:58:49.951Z,65.60
2022-08-23T19:01:26.685Z,65.20
2022-08-23T19:03:55.525Z,65.20
2022-08-23T19:06:23.522Z,65.10
2022-08-23T19:08:51.686Z,64.90
2022-08-23T19:11:20.022Z,65.30
2022-08-23T19:13:47.495Z,65.30
2022-08-23T19:16:16.132Z,65.50
2022-08-23T19:18:45.027Z,65.40
2022-08-23T19:21:14.566Z,65.80
2022-08-23T19:23:42.203Z,65.50
2022-08-23T19:26:11.021Z,65.80
2022-08-23T19:28:38.403Z,65.70
2022-08-23T19:31:05.459Z,66.00
2022-08-23T19:33:32.741Z,65.90
2022-08-23T19:35:59.644Z,65.90
2022-08-23T19:38:27.903Z,65.90
2022-08-23T19:40:56.233Z,66.50
2022-08-23T19:43:24.041Z,65.80
2022-08-23T19:45:51.253Z,66.00
2022-08-23T19:48:19.290Z,66.30
2022-08-23T19:50:47.626Z,66.30
2022-08-23T19:53:15.877Z,66.40
2022-08-23T19:55:45.128Z,66.10
2022-08-23T19:58:14.149Z,66.20
2022-08-23T20:00:41.630Z,66.50
2022-08-23T20:03:08.780Z,66.70
2022-08-23T20:05:36.305Z,66.60
2022-08-23T20:08:03.906Z,66.40
2022-08-23T20:10:30.695Z,66.70
2022-08-23T20:12:58.121Z,66.50
2022-08-23T20:15:25.503Z,66.10
2022-08-23T20:17:52.934Z,66.20
2022-08-23T20:20:19.946Z,66.60
2022-08-23T20:23:05.693Z,66.70
2022-08-23T20:25:32.527Z,66.90
2022-08-23T20:27:59.939Z,66.70
2022-08-23T20:30:27.476Z,66.80
2022-08-23T20:32:54.995Z,66.80
2022-08-23T20:35:24.671Z,67.00
2022-08-23T20:37:51.832Z,67.20
2022-08-23T20:40:19.197Z,67.10
2022-08-23T20:42:46.648Z,67.40
2022-08-23T20:45:13.940Z,67.40
2022-08-23T20:47:41.310Z,67.10
2022-08-23T20:50:08.752Z,67.50
2022-08-23T20:52:36.296Z,67.30
2022-08-23T20:55:04.208Z,67.30
2022-08-23T20:57:38.652Z,67.70
2022-08-23T21:00:07.571Z,67.80
2022-08-23T21:02:34.527Z,67.40
2022-08-23T21:05:01.821Z,67.80
2022-08-23T21:07:31.646Z,67.70
2022-08-23T21:09:58.467Z,67.20
2022-08-23T21:12:27.730Z,67.30
2022-08-23T21:14:56.701Z,67.90
2022-08-23T21:17:23.523Z,68.00
2022-08-23T21:19:50.362Z,67.50
2022-08-23T21:22:17.173Z,68.20
2022-08-23T21:24:44.022Z,68.00
2022-08-23T21:27:10.902Z,68.30
2022-08-23T21:29:38.562Z,68.30
2022-08-23T21:32:06.838Z,68.20
2022-08-23T21:34:33.982Z,68.20
2022-08-23T21:37:00.930Z,68.50
2022-08-23T21:39:27.819Z,68.60
2022-08-23T21:41:56.154Z,68.00
2022-08-23T21:44:24.648Z,68.10
2022-08-23T21:46:51.519Z,68.10
2022-08-23T21:49:21.071Z,68.20
2022-08-23T21:51:49.106Z,68.30
2022-08-23T21:54:18.283Z,68.10
2022-08-23T21:56:45.899Z,68.60
2022-08-23T21:59:16.773Z,68.10
2022-08-23T22:01:44.662Z,68.50
2022-08-23T22:04:13.002Z,68.60
2022-08-23T22:06:42.520Z,68.60
2022-08-23T22:09:13.684Z,68.20
2022-08-23T22:11:42.322Z,68.60
2022-08-23T22:14:13.452Z,68.10
2022-08-23T22:16:41.385Z,68.50
2022-08-23T22:19:08.166Z,68.20
2022-08-23T22:21:35.625Z,68.80
2022-08-23T22:24:03.135Z,69.10
2022-08-23T22:26:29.929Z,69.10
2022-08-23T22:28:57.203Z,69.00
2022-08-23T22:31:24.251Z,69.00
2022-08-23T22:33:51.759Z,68.80
2022-08-23T22:36:22.100Z,68.60
2022-08-23T22:38:49.937Z,69.30
2022-08-23T22:41:19.593Z,68.80
2022-08-23T22:43:47.005Z,69.10
2022-08-23T22:46:14.366Z,69.40
2022-08-23T22:48:41.294Z,69.60
2022-08-23T22:51:17.215Z,69.70
2022-08-23T22:53:50.076Z,69.10
2022-08-23T22:56:37.864Z,69.20
2022-08-23T22:59:05.862Z,69.40
2022-08-23T23:01:34.977Z,69.60
2022-08-23T23:04:04.295Z,69.60
2022-08-23T23:06:31.844Z,69.10
2022-08-23T23:09:00.939Z,69.30
2022-08-23T23:11:28.324Z,69.20
2022-08-23T23:13:56.724Z,69.60
2022-08-23T23:16:26.741Z,69.90
2022-08-23T23:19:12.327Z,69.90
2022-08-23T23:21:45.813Z,70.00
2022-08-23T23:24:16.552Z,69.80
2022-08-23T23:26:47.545Z,69.90
2022-08-23T23:29:15.039Z,69.90
2022-08-23T23:31:44.582Z,70.20
2022-08-23T23:34:12.139Z,70.50
2022-08-23T23:36:42.747Z,70.10
2022-08-23T23:39:11.196Z,69.70
2022-08-23T23:41:38.146Z,69.40
2022-08-23T23:44:08.102Z,69.90
2022-08-23T23:46:35.183Z,69.90
2022-08-23T23:49:02.103Z,69.50
2022-08-23T23:51:31.467Z,69.90
2022-08-23T23:54:00.927Z,70.10
2022-08-23T23:56:29.923Z,69.90
2022-08-23T23:58:58.676Z,70.20
